Itaguacu da Bahia, Brazil
Current Conditions -  °F | °C
As of 1:00 PM on Saturday 22 Nov 2014 (Local Time) from SBPL Reporting Station
Broken Clouds Broken Clouds  
Wind Chill: 90°   Ceiling: 4000
Heat Index: 93°   Visibility: 6mi
Dew Point: 68°   Wind: 7mph
Humidity: 49%   Direction: 80°E
Pressure: 29.91"   Gusts: NA
Location:  11.01°S, 42.4°W
Report Text: SBPL 221600Z 08006KT 9999 BKN040 32/20 Q1013
Loading
Personal Weather Stations






























Interactive Weather Map New forecast layout! Learn more

10-Day Weather Forecast

Advertisements
Track Severe Weather on mobile